< < Back
Terminal Aerodrome Forecast


Current Version              Previous Versions:   1  2  3  4  5  6  7  8  9  

Terminal Aerodrome Forecast

450
FTUS42 KCAE 240100 AAA
TAFAGS
TAF AMD
KAGS 240104Z 2401/2424 16009G20KT 5SM TSRA BR OVC005CB
     FM240300 20010G20KT 5SM -SHRA BR OVC005
     FM240600 21009G15KT P6SM OVC005
     FM241800 22014G24KT P6SM BKN015
     FM242100 23012G20KT P6SM SCT015 BKN035=



Latest METAR

133
SAUS70 KWBC 240200 RRI
MTRAGS
METAR KAGS 240153Z 22005KT 10SM SCT110 19/17 A2976 RMK AO2 WSHFT 0128
RAE52 SLP078 P0002 T01890167


USA.gov is the U.S. government's official web portal to all federal, state and local government web resources and services.